Lady Caroline — WDE6297 — position and weather

sailwx.info

Track history (hours):
 
Tides and Currents Weather Stations Pressure Air Temp Water Temp Dewpoint Dewpoint Depression Visibility Wind Speed Wind Dir Waves Ship Positions

Lady Caroline

Owner: Second Lady Caroline, LLC, Beverly Hills, CA. More information available from US FCC via Universal Licensing System.

Last reported at 2017-Jan-18 06:19 UTC. Time now 2017-Jan-20 09:55 UTC.
Position N 32°24' W 117°11'.

Length 33 m; draft 2.3 m.

Type: Pleasure craft. MMSI: 367378430.

Date/timePositionNaut miles runAvg speedWind from/ knotsBaromVisibWave heightAir tempDewpointWater temp
2017-Jan-18 06:19N 32°24' W 117°11'8 9.9
2017-Jan-18 05:33N 32°31' W 117°15'1010.0
2017-Jan-18 04:33N 32°38' W 117°23'1010.2
2017-Jan-18 03:33N 32°46' W 117°31'10 9.9
2017-Jan-18 02:33N 32°54' W 117°38'1010.2
2017-Jan-18 01:33N 33°02' W 117°46'10 9.7
2017-Jan-18 00:33N 33°10' W 117°53'9 9.4
2017-Jan-17 23:33N 33°17' W 117°60'9 9.4
2017-Jan-17 22:33N 33°24' W 118°07'9 9.3
2017-Jan-17 21:33N 33°32' W 118°14'9 9.0
2017-Jan-17 20:33N 33°39' W 118°20'9 8.9
2017-Jan-17 19:33N 33°46' W 118°27'13 1.4
2017-Jan-17 10:33N 33°59' W 118°27'0 0.0
2017-Jan-17 09:28N 33°59' W 118°27'0 0.0
2017-Jan-17 08:08N 33°59' W 118°27'0 0.0
2017-Jan-15 06:08N 33°59' W 118°27'0 0.0
2017-Jan-15 05:29N 33°59' W 118°27'  
Track history (hours):
 
Tides and Currents Weather Stations Pressure Air Temp Water Temp Dewpoint Dewpoint Depression Visibility Wind Speed Wind Dir Waves Ship Positions

Lady Caroline

Owner: Second Lady Caroline, LLC, Beverly Hills, CA. More information available from US FCC via Universal Licensing System.

Last reported at 2017-Jan-18 06:19 UTC. Time now 2017-Jan-20 09:55 UTC.
Position N 32°24' W 117°11'.

Length 33 m; draft 2.3 m.

Type: Pleasure craft. MMSI: 367378430.

Date/timePositionNaut miles runAvg speedWind from/ knotsBaromVisibWave heightAir tempDewpointWater temp
2017-Jan-18 06:19N 32°24' W 117°11'8 9.9
2017-Jan-18 05:33N 32°31' W 117°15'1010.0
2017-Jan-18 04:33N 32°38' W 117°23'1010.2
2017-Jan-18 03:33N 32°46' W 117°31'10 9.9
2017-Jan-18 02:33N 32°54' W 117°38'1010.2
2017-Jan-18 01:33N 33°02' W 117°46'10 9.7
2017-Jan-18 00:33N 33°10' W 117°53'9 9.4
2017-Jan-17 23:33N 33°17' W 117°60'9 9.4
2017-Jan-17 22:33N 33°24' W 118°07'9 9.3
2017-Jan-17 21:33N 33°32' W 118°14'9 9.0
2017-Jan-17 20:33N 33°39' W 118°20'9 8.9
2017-Jan-17 19:33N 33°46' W 118°27'13 1.4
2017-Jan-17 10:33N 33°59' W 118°27'0 0.0
2017-Jan-17 09:28N 33°59' W 118°27'0 0.0
2017-Jan-17 08:08N 33°59' W 118°27'0 0.0
2017-Jan-15 06:08N 33°59' W 118°27'0 0.0
2017-Jan-15 05:29N 33°59' W 118°27'  

Dump ship's entire track history